Time;durP1;ratioP1;P1;durP2;ratioP2;P2;SDS_P1;SDS_P2;PMS_P1;PMS_P2;Temp;Humidity;BMP_temperature;BMP_pressure;BME280_temperature;BME280_humidity;BME280_pressure;Samples;Min_cycle;Max_cycle;Signal;HPM_P1;HPM_P2
2023/01/03 00:00:43;;;;;;;29.60;21.08;;;;;;;7.44;58.36;102165.56;5013687;28;20857;-74
2023/01/03 00:03:13;;;;;;;32.80;22.13;;;;;;;7.33;58.68;102163.72;5013152;28;20391;-74
2023/01/03 00:05:41;;;;;;;24.85;18.63;;;;;;;7.31;58.46;102155.09;5013507;28;20380;-74
2023/01/03 00:08:07;;;;;;;28.75;21.50;;;;;;;7.39;58.43;102159.78;5012915;28;20372;-74
2023/01/03 00:10:33;;;;;;;31.00;20.92;;;;;;;7.42;58.35;102154.31;5013011;28;20741;-75
2023/01/03 00:12:58;;;;;;;27.83;19.60;;;;;;;7.43;58.61;102161.25;5012945;28;20491;-74
2023/01/03 00:16:41;;;;;;;27.60;19.40;;;;;;;7.42;58.30;102151.66;5103998;27;20877;-74
2023/01/03 00:19:12;;;;;;;29.20;21.23;;;;;;;7.43;58.14;102153.34;5105957;28;20455;-74
2023/01/03 00:21:38;;;;;;;25.83;17.75;;;;;;;7.38;58.16;102158.97;5100585;28;20531;-74
2023/01/03 00:24:05;;;;;;;23.45;18.20;;;;;;;7.27;58.89;102159.75;5103210;28;20381;-74
2023/01/03 00:26:31;;;;;;;24.48;18.30;;;;;;;7.23;58.86;102155.63;5089242;28;20746;-74
2023/01/03 00:28:56;;;;;;;55.35;35.90;;;;;;;7.13;58.90;102159.06;5092095;28;20374;-74
2023/01/03 00:31:22;;;;;;;33.17;24.23;;;;;;;7.11;59.20;102164.44;5099352;28;20472;-75
2023/01/03 00:33:47;;;;;;;39.17;28.77;;;;;;;7.08;59.38;102165.50;5091815;28;20456;-74
2023/01/03 00:36:13;;;;;;;39.13;31.73;;;;;;;7.05;59.63;102155.19;5083222;28;20411;-74
2023/01/03 00:38:39;;;;;;;40.07;30.30;;;;;;;7.10;59.65;102152.22;5080761;28;20384;-74
2023/01/03 00:41:16;;;;;;;51.13;35.07;;;;;;;7.18;59.04;102151.66;5097977;28;20489;-74
2023/01/03 00:43:43;;;;;;;53.17;38.63;;;;;;;7.20;58.92;102152.38;5086655;28;20924;-74
2023/01/03 00:46:10;;;;;;;52.95;37.90;;;;;;;7.15;58.95;102144.81;5105340;28;20372;-74
2023/01/03 00:48:36;;;;;;;42.17;32.05;;;;;;;7.15;58.74;102157.16;5101647;28;20627;-74
2023/01/03 00:51:10;;;;;;;47.27;34.97;;;;;;;7.00;58.97;102157.31;5096981;28;20388;-74
2023/01/03 00:53:37;;;;;;;31.45;22.17;;;;;;;6.98;58.95;102153.94;5092998;28;20386;-75
2023/01/03 00:56:09;;;;;;;33.05;23.02;;;;;;;6.99;58.64;102163.56;5104175;28;20400;-75
2023/01/03 00:58:35;;;;;;;33.60;23.15;;;;;;;6.94;58.77;102144.59;5087201;28;20383;-73
2023/01/03 01:01:20;;;;;;;34.50;22.98;;;;;;;6.94;58.73;102146.38;5096311;28;20381;-73
2023/01/03 01:03:48;;;;;;;31.70;22.40;;;;;;;6.89;58.67;102144.06;5090597;28;20813;-74
2023/01/03 01:06:20;;;;;;;33.55;24.50;;;;;;;6.98;58.73;102139.94;5105811;28;20382;-74
2023/01/03 01:08:46;;;;;;;28.73;20.08;;;;;;;7.08;58.17;102138.31;5106770;28;20376;-74
2023/01/03 01:11:13;;;;;;;31.70;22.13;;;;;;;7.11;58.00;102139.88;5096175;28;20432;-74
2023/01/03 01:13:39;;;;;;;32.88;24.10;;;;;;;7.07;58.10;102134.81;5103101;28;20423;-74
2023/01/03 01:16:08;;;;;;;32.47;24.15;;;;;;;7.06;58.23;102140.22;5089269;28;20453;-74
2023/01/03 01:18:34;;;;;;;32.10;23.73;;;;;;;7.00;58.07;102130.94;5090535;28;20381;-74
2023/01/03 01:21:03;;;;;;;37.63;25.00;;;;;;;6.97;58.25;102128.56;5097655;28;20378;-74
2023/01/03 01:23:29;;;;;;;48.53;27.67;;;;;;;7.02;58.13;102128.19;5099327;28;20387;-74
2023/01/03 01:25:59;;;;;;;38.70;25.40;;;;;;;7.07;58.23;102129.53;5088909;28;20375;-74
2023/01/03 01:28:25;;;;;;;36.58;24.30;;;;;;;7.05;58.15;102125.34;5090985;28;20386;-75
2023/01/03 01:30:50;;;;;;;34.92;24.83;;;;;;;7.06;58.00;102121.78;5086272;28;20379;-74
2023/01/03 01:33:15;;;;;;;31.00;23.83;;;;;;;7.01;58.04;102116.81;5083982;28;20506;-75
2023/01/03 01:35:41;;;;;;;32.03;23.53;;;;;;;7.07;58.16;102124.25;5078247;28;20906;-74
2023/01/03 01:38:06;;;;;;;31.85;23.48;;;;;;;7.07;57.70;102123.44;5087823;28;20866;-74
2023/01/03 01:40:32;;;;;;;29.88;23.00;;;;;;;7.02;57.83;102125.56;5076050;28;20390;-74
2023/01/03 01:45:59;;;;;;;43.95;28.85;;;;;;;6.88;57.73;102124.78;5076799;28;20457;-74
2023/01/03 01:48:24;;;;;;;56.13;38.40;;;;;;;6.89;57.87;102122.97;5058699;28;20896;-74
2023/01/03 01:50:54;;;;;;;63.15;44.72;;;;;;;6.88;57.50;102118.69;5085189;28;20387;-75
2023/01/03 01:53:26;;;;;;;47.83;35.43;;;;;;;6.84;57.66;102119.81;5083403;28;20873;-75
2023/01/03 01:56:34;;;;;;;53.70;34.13;;;;;;;6.67;57.90;102121.88;5076554;28;20399;-75
2023/01/03 01:59:00;;;;;;;39.53;27.08;;;;;;;6.57;57.75;102115.63;4963363;28;21268;-76
2023/01/03 02:01:26;;;;;;;34.97;25.08;;;;;;;6.41;58.46;102118.47;4964241;28;20907;-75
2023/01/03 02:04:00;;;;;;;28.52;21.13;;;;;;;6.27;58.73;102116.81;4993043;28;20384;-74
2023/01/03 02:06:26;;;;;;;23.20;17.00;;;;;;;6.13;58.74;102109.88;5088731;28;20375;-75
2023/01/03 02:08:51;;;;;;;23.38;17.02;;;;;;;5.99;59.05;102111.78;5075614;28;20393;-74
2023/01/03 02:11:41;;;;;;;26.70;18.70;;;;;;;5.98;59.30;102105.69;5085172;28;20377;-74
2023/01/03 02:14:18;;;;;;;30.88;22.10;;;;;;;6.08;58.78;102106.69;5077746;28;20383;-74
2023/01/03 02:17:02;;;;;;;24.33;17.02;;;;;;;6.02;58.63;102106.31;5087621;28;20431;-75
2023/01/03 02:20:01;;;;;;;27.67;20.48;;;;;;;6.04;58.50;102099.16;5071664;28;20452;-75
2023/01/03 02:22:44;;;;;;;24.65;16.83;;;;;;;5.98;58.18;102099.53;5074289;28;20927;-74
2023/01/03 02:25:16;;;;;;;25.98;19.08;;;;;;;5.93;57.85;102094.59;5082010;28;20390;-74
2023/01/03 02:27:44;;;;;;;27.20;20.23;;;;;;;5.82;58.24;102097.94;5071597;28;20382;-74
2023/01/03 02:30:31;;;;;;;29.13;19.85;;;;;;;5.70;58.47;102110.13;5073217;28;20390;-74
2023/01/03 02:33:17;;;;;;;25.08;18.88;;;;;;;5.54;58.60;102112.13;5070275;28;20383;-74
2023/01/03 02:36:07;;;;;;;26.25;20.95;;;;;;;5.39;58.18;102108.72;5073265;28;20425;-74
2023/01/03 02:39:01;;;;;;;35.33;25.37;;;;;;;5.39;58.78;102111.38;5083744;28;20470;-75
2023/01/03 02:41:39;;;;;;;42.22;28.13;;;;;;;5.29;58.72;102111.09;5071003;28;20387;-74
2023/01/03 02:44:24;;;;;;;34.92;25.27;;;;;;;5.28;58.64;102116.50;5070543;28;20386;-74
2023/01/03 02:46:59;;;;;;;32.63;23.90;;;;;;;5.14;58.28;102106.88;5070995;28;20379;-74
2023/01/03 02:49:33;;;;;;;31.92;23.92;;;;;;;5.08;59.02;102112.53;5070060;28;20867;-74
2023/01/03 02:52:09;;;;;;;29.38;22.35;;;;;;;5.03;59.36;102112.81;5070336;28;20450;-74
2023/01/03 02:54:44;;;;;;;31.50;20.45;;;;;;;4.94;59.30;102116.06;5086528;28;20381;-74
2023/01/03 02:57:14;;;;;;;31.98;20.75;;;;;;;4.84;59.95;102107.91;5069372;28;20454;-74
2023/01/03 02:59:48;;;;;;;27.17;20.08;;;;;;;4.82;59.97;102109.78;5070343;28;20941;-74
2023/01/03 03:02:16;;;;;;;32.17;21.08;;;;;;;4.74;60.19;102104.19;5070818;28;20383;-74
2023/01/03 03:04:45;;;;;;;32.42;21.80;;;;;;;4.71;59.97;102102.59;5073276;28;20394;-74
2023/01/03 03:07:30;;;;;;;31.63;23.45;;;;;;;4.69;60.22;102107.09;5071949;28;20405;-74
2023/01/03 03:15:32;;;;;;;27.90;22.65;;;;;;;4.66;59.92;102111.69;5070507;28;20557;-74
2023/01/03 03:18:04;;;;;;;28.77;21.83;;;;;;;4.65;59.88;102115.28;5071270;28;21180;-73
2023/01/03 03:26:10;;;;;;;26.73;22.10;;;;;;;4.62;59.97;102100.53;5069552;28;20413;-74
2023/01/03 03:28:38;;;;;;;24.95;20.70;;;;;;;4.63;60.42;102112.75;5068144;28;20878;-73
2023/01/03 03:31:13;;;;;;;26.65;22.13;;;;;;;4.65;60.34;102112.66;5071324;28;20402;-73
2023/01/03 03:33:50;;;;;;;25.67;21.13;;;;;;;4.60;60.33;102116.41;5070298;28;20391;-74
2023/01/03 03:36:22;;;;;;;25.70;21.98;;;;;;;4.56;60.68;102116.69;5068638;28;20430;-73
2023/01/03 03:38:48;;;;;;;25.20;20.77;;;;;;;4.59;60.59;102114.72;5068851;28;20816;-74
2023/01/03 03:47:13;;;;;;;24.27;19.73;;;;;;;4.62;60.94;102118.94;5071727;28;20428;-73
2023/01/03 03:49:43;;;;;;;22.88;18.73;;;;;;;4.75;60.25;102125.13;5068927;28;21337;-73
2023/01/03 03:52:14;;;;;;;23.10;19.70;;;;;;;4.88;60.02;102119.91;5068271;28;20553;-74
2023/01/03 03:54:45;;;;;;;24.95;20.98;;;;;;;4.92;60.09;102115.31;5068824;28;20391;-74
2023/01/03 03:57:21;;;;;;;26.85;21.65;;;;;;;4.97;59.72;102108.81;5068003;28;20379;-73
2023/01/03 03:59:51;;;;;;;25.43;20.07;;;;;;;5.07;59.69;102118.72;5069837;28;20527;-73
2023/01/03 04:02:19;;;;;;;22.50;18.77;;;;;;;5.05;59.30;102116.19;5069545;28;20390;-73
2023/01/03 04:04:48;;;;;;;23.30;19.67;;;;;;;5.09;59.30;102122.94;5069846;28;20378;-74
2023/01/03 04:07:14;;;;;;;22.58;18.45;;;;;;;5.06;59.68;102117.91;5067496;28;20867;-74
2023/01/03 04:09:39;;;;;;;24.43;20.17;;;;;;;5.07;59.10;102116.09;5069756;28;20391;-73
2023/01/03 04:12:06;;;;;;;24.65;21.35;;;;;;;5.09;59.15;102115.03;5084665;28;20381;-75
2023/01/03 04:14:31;;;;;;;28.77;25.70;;;;;;;5.03;59.10;102115.44;5072272;28;20387;-74
2023/01/03 04:16:57;;;;;;;27.10;24.20;;;;;;;5.08;59.48;102130.94;5085477;28;20449;-74
2023/01/03 04:19:22;;;;;;;25.50;21.83;;;;;;;5.12;59.36;102122.75;5084545;28;20384;-75
2023/01/03 04:21:47;;;;;;;25.42;22.45;;;;;;;5.20;59.08;102127.50;5076797;28;20382;-75
2023/01/03 04:24:13;;;;;;;26.10;23.20;;;;;;;5.29;59.32;102120.78;5086344;28;20396;-74
2023/01/03 04:26:38;;;;;;;24.87;21.57;;;;;;;5.38;58.43;102127.22;5072045;28;20373;-74
2023/01/03 04:29:04;;;;;;;25.60;22.90;;;;;;;5.40;58.70;102123.53;5087073;28;20529;-74
2023/01/03 04:31:29;;;;;;;26.00;23.30;;;;;;;5.43;58.60;102117.25;5082507;28;20385;-74
2023/01/03 04:33:55;;;;;;;26.47;21.17;;;;;;;5.41;58.30;102122.63;5073980;28;20474;-74
2023/01/03 04:36:20;;;;;;;25.53;21.03;;;;;;;5.42;58.30;102126.09;5084144;28;20745;-73
2023/01/03 04:38:46;;;;;;;24.37;21.73;;;;;;;5.44;58.57;102126.81;5072629;28;20454;-73
2023/01/03 04:41:12;;;;;;;32.78;29.38;;;;;;;5.48;57.96;102121.28;5076353;28;20389;-74
2023/01/03 04:46:22;;;;;;;26.42;23.50;;;;;;;5.59;57.47;102127.59;5070868;28;20440;-73
2023/01/03 04:48:47;;;;;;;28.00;24.60;;;;;;;5.46;57.85;102114.44;5077867;28;20387;-73
2023/01/03 04:51:14;;;;;;;28.80;23.40;;;;;;;5.49;58.27;102125.59;5071031;28;20394;-73
2023/01/03 04:53:39;;;;;;;28.63;23.38;;;;;;;5.49;58.11;102127.34;5074935;28;20764;-73
2023/01/03 04:56:05;;;;;;;32.92;27.33;;;;;;;5.50;57.72;102136.94;5078144;28;20407;-73
2023/01/03 04:58:30;;;;;;;34.53;28.52;;;;;;;5.46;57.58;102146.84;5070686;28;20394;-74
2023/01/03 05:01:01;;;;;;;41.65;35.78;;;;;;;5.44;58.27;102138.19;5072039;28;20383;-73
2023/01/03 05:03:27;;;;;;;44.97;36.53;;;;;;;5.38;57.65;102146.47;5075952;28;20397;-74
2023/01/03 05:06:01;;;;;;;42.40;34.58;;;;;;;5.29;58.25;102155.81;5074346;28;20389;-74
2023/01/03 05:08:26;;;;;;;38.80;33.35;;;;;;;5.11;58.67;102154.38;5074653;28;20383;-74
2023/01/03 05:10:52;;;;;;;47.87;37.33;;;;;;;5.07;58.72;102169.50;5077337;28;20392;-74
2023/01/03 05:13:18;;;;;;;40.83;34.00;;;;;;;5.15;58.72;102167.22;5076502;28;20417;-74
2023/01/03 05:15:44;;;;;;;45.10;34.35;;;;;;;5.17;58.59;102151.38;5085009;28;20524;-74
2023/01/03 05:18:10;;;;;;;42.53;34.13;;;;;;;5.24;58.10;102157.91;5077633;28;20466;-74
2023/01/03 05:26:10;;;;;;;47.83;42.42;;;;;;;5.36;57.76;102156.25;5071381;28;20378;-74
2023/01/03 05:28:36;;;;;;;47.63;42.03;;;;;;;5.36;57.82;102158.88;5072326;28;20391;-74
2023/01/03 05:31:02;;;;;;;45.30;35.78;;;;;;;5.33;57.79;102162.56;5071665;28;21062;-74
2023/01/03 05:33:29;;;;;;;45.80;35.90;;;;;;;5.32;57.76;102160.88;5071742;28;20875;-74
2023/01/03 05:35:54;;;;;;;50.13;43.75;;;;;;;5.36;57.94;102159.72;5072204;28;20406;-75
2023/01/03 05:38:21;;;;;;;44.20;36.13;;;;;;;5.33;57.63;102165.19;5072069;28;20393;-74
2023/01/03 05:40:46;;;;;;;44.60;33.17;;;;;;;5.34;58.01;102166.88;5069393;28;20398;-75
2023/01/03 05:43:12;;;;;;;41.40;33.33;;;;;;;5.39;57.44;102173.63;5072225;28;20867;-75
2023/01/03 05:45:38;;;;;;;44.83;34.60;;;;;;;5.33;57.41;102162.56;5071571;28;20408;-73
2023/01/03 05:48:05;;;;;;;47.47;38.17;;;;;;;5.33;57.45;102167.84;5071337;28;20783;-74
2023/01/03 05:50:30;;;;;;;49.97;38.13;;;;;;;5.34;57.62;102151.09;5070719;28;20417;-74
2023/01/03 05:52:56;;;;;;;47.30;39.70;;;;;;;5.32;57.83;102168.75;5071729;28;20386;-74
2023/01/03 05:55:22;;;;;;;49.53;37.10;;;;;;;5.33;58.05;102167.84;5071412;28;20402;-74
2023/01/03 05:57:47;;;;;;;49.37;38.03;;;;;;;5.30;57.75;102169.81;5071264;28;20448;-74
2023/01/03 06:00:14;;;;;;;52.47;39.20;;;;;;;5.30;57.82;102169.81;5060992;28;20466;-74
2023/01/03 06:02:40;;;;;;;60.92;43.40;;;;;;;5.30;57.34;102167.19;5061526;28;20480;-74
2023/01/03 06:05:06;;;;;;;46.25;37.95;;;;;;;5.20;58.13;102179.22;5068684;28;20798;-74
2023/01/03 06:07:33;;;;;;;51.75;39.58;;;;;;;5.15;57.83;102177.75;5061468;28;20812;-74
2023/01/03 06:09:59;;;;;;;47.08;36.47;;;;;;;5.13;58.17;102177.00;5063751;28;20478;-76
2023/01/03 06:12:28;;;;;;;48.17;36.78;;;;;;;5.12;58.52;102179.72;5070590;28;20462;-75
2023/01/03 06:14:54;;;;;;;56.13;39.97;;;;;;;5.03;58.25;102164.56;5067668;28;20419;-74
2023/01/03 06:20:04;;;;;;;56.53;41.87;;;;;;;4.93;57.46;102166.91;5101770;28;20938;-74
2023/01/03 06:22:30;;;;;;;59.78;39.13;;;;;;;4.94;57.71;102176.50;5098653;28;20394;-74
2023/01/03 06:24:55;;;;;;;50.47;36.00;;;;;;;4.94;57.85;102179.13;5076407;28;20466;-74
2023/01/03 06:27:21;;;;;;;53.77;38.90;;;;;;;4.96;57.51;102170.19;5077573;28;20749;-74
2023/01/03 06:29:46;;;;;;;56.27;40.40;;;;;;;5.04;57.30;102174.09;5079917;28;20389;-75
2023/01/03 06:32:12;;;;;;;52.25;41.25;;;;;;;5.06;57.21;102172.22;5075382;28;20394;-75
2023/01/03 06:34:37;;;;;;;56.33;41.20;;;;;;;5.07;57.07;102182.63;5089259;28;20385;-74
2023/01/03 06:37:03;;;;;;;56.13;40.50;;;;;;;5.08;57.38;102183.50;5091870;28;20420;-74
2023/01/03 06:39:28;;;;;;;61.03;42.33;;;;;;;5.13;57.85;102184.91;5082941;28;20387;-74
2023/01/03 06:41:54;;;;;;;60.47;42.87;;;;;;;5.20;57.58;102187.94;5071570;28;20720;-75
2023/01/03 06:44:19;;;;;;;59.45;41.70;;;;;;;5.30;57.49;102177.69;5073016;28;20383;-74
2023/01/03 06:53:11;;;;;;;55.47;42.03;;;;;;;5.33;57.18;102191.50;5070191;28;20388;-74
2023/01/03 06:55:13;;;;;;;70.97;49.85;;;;;;;5.36;58.19;102195.69;5069593;28;20439;-74
2023/01/03 06:57:39;;;;;;;74.03;54.88;;;;;;;5.39;58.53;102192.88;5074269;28;20387;-74
2023/01/03 07:00:04;;;;;;;63.10;45.83;;;;;;;5.53;58.16;102187.56;5076794;28;20946;-75
2023/01/03 07:02:30;;;;;;;73.77;51.57;;;;;;;5.65;57.82;102185.91;5080927;28;20452;-75
2023/01/03 07:04:55;;;;;;;71.83;48.10;;;;;;;5.78;57.64;102193.84;5078775;28;20807;-75
2023/01/03 07:07:21;;;;;;;77.18;48.70;;;;;;;5.85;57.81;102184.59;5090592;28;20385;-75
2023/01/03 07:09:46;;;;;;;60.63;43.80;;;;;;;5.96;57.74;102190.94;5079122;28;20387;-74
2023/01/03 07:14:56;;;;;;;59.38;40.47;;;;;;;6.26;57.78;102188.84;5086412;28;20863;-75
2023/01/03 07:17:21;;;;;;;49.03;33.40;;;;;;;6.39;58.81;102185.38;5071269;28;20391;-75
2023/01/03 07:19:47;;;;;;;49.17;35.43;;;;;;;6.50;58.59;102190.75;5086316;28;20871;-75
2023/01/03 07:22:12;;;;;;;50.83;35.63;;;;;;;6.66;58.62;102179.97;5071283;28;20739;-75
2023/01/03 07:24:38;;;;;;;46.90;32.60;;;;;;;6.93;58.47;102189.50;5072203;28;20383;-73
2023/01/03 07:27:03;;;;;;;55.53;38.93;;;;;;;7.02;58.31;102191.47;5086225;28;20387;-74
2023/01/03 07:29:28;;;;;;;52.45;36.15;;;;;;;7.12;58.45;102199.59;5071915;28;20481;-73
2023/01/03 07:31:54;;;;;;;48.77;34.93;;;;;;;7.19;58.52;102196.38;5082582;28;20908;-74
2023/01/03 07:34:19;;;;;;;50.03;32.77;;;;;;;7.35;58.94;102193.47;5082351;28;20388;-75
2023/01/03 07:36:45;;;;;;;50.10;32.08;;;;;;;7.57;58.64;102200.66;5071187;28;20417;-74
2023/01/03 07:39:10;;;;;;;50.07;31.67;;;;;;;7.66;58.25;102193.84;5067397;28;20445;-73
2023/01/03 07:44:20;;;;;;;44.53;28.15;;;;;;;8.28;57.99;102194.47;5080207;28;20456;-75
2023/01/03 07:46:45;;;;;;;27.55;19.73;;;;;;;8.62;57.84;102203.28;5070399;28;20855;-74
2023/01/03 07:49:10;;;;;;;23.90;15.40;;;;;;;8.94;57.67;102207.84;5070882;28;20739;-75
2023/01/03 07:51:36;;;;;;;17.97;12.23;;;;;;;9.28;57.00;102213.91;5076410;28;20872;-75
2023/01/03 07:54:01;;;;;;;13.00;9.15;;;;;;;9.68;56.46;102205.31;5068959;28;20731;-75
2023/01/03 07:56:27;;;;;;;12.67;8.57;;;;;;;10.08;55.70;102209.09;5071074;28;20457;-75
2023/01/03 07:58:52;;;;;;;13.40;7.32;;;;;;;10.32;55.44;102207.03;5070459;28;20419;-74
2023/01/03 08:01:20;;;;;;;10.57;7.15;;;;;;;10.55;55.04;102203.38;5073310;28;20379;-75
2023/01/03 08:03:46;;;;;;;11.35;7.97;;;;;;;10.82;54.45;102210.72;5082226;28;20504;-75
2023/01/03 08:06:20;;;;;;;11.13;7.78;;;;;;;10.99;54.00;102201.28;5076319;28;20534;-75
2023/01/03 08:14:14;;;;;;;14.23;7.95;;;;;;;11.53;52.73;102223.03;5079237;28;20801;-75
2023/01/03 08:16:40;;;;;;;13.93;8.52;;;;;;;11.71;52.37;102220.50;5088046;28;20401;-75
2023/01/03 08:19:05;;;;;;;16.93;9.17;;;;;;;11.89;52.31;102226.78;5092195;28;20393;-75
2023/01/03 08:21:31;;;;;;;14.03;8.87;;;;;;;12.02;52.07;102226.53;5076672;28;20478;-75
2023/01/03 08:23:56;;;;;;;9.97;6.40;;;;;;;12.08;51.67;102217.13;5076849;28;20387;-75
2023/01/03 08:26:22;;;;;;;8.93;5.90;;;;;;;12.16;51.11;102218.09;5079300;28;20383;-75
2023/01/03 08:28:47;;;;;;;8.33;5.17;;;;;;;12.30;50.90;102229.25;5086411;28;20410;-75
2023/01/03 08:31:25;;;;;;;9.03;5.63;;;;;;;12.41;50.40;102227.28;5075455;28;20825;-76
2023/01/03 08:33:54;;;;;;;7.75;4.68;;;;;;;12.48;50.26;102243.50;5081962;28;20385;-75
2023/01/03 08:36:22;;;;;;;7.78;4.78;;;;;;;12.48;50.01;102239.97;5076875;28;20399;-75
2023/01/03 08:39:01;;;;;;;10.82;5.43;;;;;;;12.66;49.81;102224.09;5076044;28;20402;-74
2023/01/03 08:41:29;;;;;;;10.07;4.63;;;;;;;12.70;49.57;102220.19;5074515;28;20878;-76
2023/01/03 08:43:58;;;;;;;8.43;4.03;;;;;;;12.85;48.97;102217.84;5074322;28;20371;-75
2023/01/03 08:46:24;;;;;;;6.63;3.67;;;;;;;12.82;48.62;102214.50;5074419;28;20363;-75
2023/01/03 08:48:50;;;;;;;6.78;3.78;;;;;;;12.89;48.26;102214.75;5074848;28;20375;-75
2023/01/03 08:51:15;;;;;;;9.33;3.93;;;;;;;13.09;48.30;102209.31;5074887;28;20708;-75
2023/01/03 08:53:40;;;;;;;10.73;5.00;;;;;;;13.18;48.20;102208.41;5076782;28;20441;-74
2023/01/03 08:56:06;;;;;;;9.10;3.90;;;;;;;13.34;47.10;102203.28;5077679;28;21129;-75
2023/01/03 08:58:32;;;;;;;8.23;4.32;;;;;;;13.37;47.41;102212.78;5076569;28;20436;-75
2023/01/03 09:01:02;;;;;;;7.97;4.65;;;;;;;13.53;47.56;102206.78;5084816;28;20387;-77
2023/01/03 09:03:28;;;;;;;7.47;3.97;;;;;;;13.54;46.82;102206.66;5055837;28;20384;-76
2023/01/03 09:05:53;;;;;;;8.43;4.27;;;;;;;13.63;46.52;102198.69;5072491;28;20394;-76
2023/01/03 09:08:19;;;;;;;7.50;3.87;;;;;;;13.76;46.10;102213.31;5073552;28;21151;-76
2023/01/03 09:10:45;;;;;;;9.27;4.43;;;;;;;13.89;46.52;102201.41;5073280;28;20407;-76
2023/01/03 09:13:11;;;;;;;8.20;4.50;;;;;;;14.06;46.03;102197.88;5074289;28;20367;-76
2023/01/03 09:15:37;;;;;;;9.45;4.60;;;;;;;14.26;45.20;102198.50;5086433;28;20409;-75
2023/01/03 09:18:02;;;;;;;9.33;4.40;;;;;;;14.29;45.44;102182.16;5080216;28;20382;-75
2023/01/03 09:20:28;;;;;;;10.80;4.30;;;;;;;14.37;44.99;102192.06;5073000;28;20445;-76
2023/01/03 09:22:53;;;;;;;7.13;4.60;;;;;;;14.46;44.86;102187.63;5072270;28;21078;-74
2023/01/03 09:25:19;;;;;;;8.47;4.83;;;;;;;14.58;44.75;102178.34;5072681;28;20383;-75
2023/01/03 09:27:48;;;;;;;9.10;4.70;;;;;;;14.70;45.06;102178.91;5071977;28;20960;-73
2023/01/03 09:30:15;;;;;;;6.40;4.07;;;;;;;14.80;44.31;102178.75;5072098;28;20436;-74
2023/01/03 09:32:40;;;;;;;9.55;4.70;;;;;;;14.83;44.63;102175.75;5071386;28;20376;-75
2023/01/03 09:35:07;;;;;;;7.90;5.00;;;;;;;15.03;44.59;102179.81;5071623;28;20764;-75
2023/01/03 09:37:32;;;;;;;7.83;4.63;;;;;;;15.05;44.42;102172.50;5063700;28;20404;-74
2023/01/03 09:39:58;;;;;;;11.27;5.20;;;;;;;15.17;44.54;102164.16;5053011;28;20726;-74
2023/01/03 09:45:20;;;;;;;8.45;5.00;;;;;;;15.13;43.54;102158.31;5074179;28;20382;-76
2023/01/03 09:47:46;;;;;;;8.02;4.15;;;;;;;15.26;42.75;102155.16;5072974;28;20371;-74
2023/01/03 09:50:23;;;;;;;7.20;4.78;;;;;;;15.38;43.25;102158.34;5080542;28;20403;-74
2023/01/03 10:04:34;;;;;;;9.02;4.53;;;;;;;15.81;42.94;102130.44;5092052;28;20467;-76
2023/01/03 10:07:47;;;;;;;8.63;4.27;;;;;;;15.91;43.04;102130.25;5075882;28;20363;-76
2023/01/03 10:10:22;;;;;;;9.83;5.20;;;;;;;16.02;42.56;102119.19;5075443;28;20798;-75
2023/01/03 10:13:05;;;;;;;6.72;4.63;;;;;;;16.12;42.49;102115.50;5080761;28;20377;-74
2023/01/03 10:15:46;;;;;;;7.30;4.67;;;;;;;16.17;42.92;102119.31;5093052;28;20421;-74
2023/01/03 10:18:23;;;;;;;10.25;6.05;;;;;;;16.25;42.53;102111.25;5078615;28;20394;-75
2023/01/03 10:21:11;;;;;;;13.32;6.72;;;;;;;16.29;41.83;102108.25;5072726;28;20375;-74
2023/01/03 10:23:37;;;;;;;11.95;6.45;;;;;;;16.29;42.14;102106.38;5083939;28;20373;-75
2023/01/03 10:26:09;;;;;;;9.23;4.73;;;;;;;16.24;41.82;102106.94;5081783;28;20375;-76
2023/01/03 10:28:41;;;;;;;8.90;5.78;;;;;;;16.41;41.93;102106.84;5095549;28;20384;-75
2023/01/03 10:31:31;;;;;;;8.50;5.68;;;;;;;16.63;42.09;102099.88;5083666;28;20693;-75
2023/01/03 10:33:57;;;;;;;7.65;4.97;;;;;;;16.77;41.99;102100.97;5078138;28;20456;-75
2023/01/03 10:36:22;;;;;;;9.43;5.15;;;;;;;16.80;41.71;102105.97;5082976;28;20457;-75
2023/01/03 10:39:08;;;;;;;9.53;5.00;;;;;;;16.73;42.14;102094.31;5091289;28;20438;-75
2023/01/03 10:41:44;;;;;;;9.15;5.43;;;;;;;16.68;42.34;102092.16;5085051;28;20379;-73
2023/01/03 10:44:24;;;;;;;8.98;5.20;;;;;;;16.91;42.18;102092.19;5070359;28;20414;-74
2023/01/03 10:46:52;;;;;;;12.15;7.10;;;;;;;16.97;42.02;102094.16;5071104;28;20365;-74
2023/01/03 10:49:21;;;;;;;8.52;5.47;;;;;;;17.10;42.30;102079.34;5068152;28;20462;-76
2023/01/03 10:51:52;;;;;;;9.38;5.00;;;;;;;16.94;42.38;102086.50;5073044;28;20876;-75
2023/01/03 10:54:17;;;;;;;8.55;5.75;;;;;;;16.92;42.37;102076.97;5088986;28;20479;-77
2023/01/03 10:56:44;;;;;;;7.57;5.53;;;;;;;16.93;42.31;102084.00;5081442;28;20435;-74
2023/01/03 10:59:16;;;;;;;8.02;4.40;;;;;;;16.95;42.33;102088.16;5070069;28;20399;-75
2023/01/03 11:02:13;;;;;;;6.40;4.60;;;;;;;16.99;42.24;102076.06;5071799;28;20398;-76
2023/01/03 11:04:39;;;;;;;7.30;5.05;;;;;;;17.17;42.21;102080.28;5068940;28;20398;-75
2023/01/03 11:07:07;;;;;;;8.32;5.05;;;;;;;17.19;42.24;102080.94;5073133;28;20391;-74
2023/01/03 11:09:53;;;;;;;5.80;4.70;;;;;;;17.27;42.05;102071.97;5071549;28;20444;-76
2023/01/03 11:12:22;;;;;;;8.93;6.10;;;;;;;17.23;41.85;102071.50;5070238;28;20739;-76
2023/01/03 11:14:54;;;;;;;8.13;5.22;;;;;;;17.20;42.00;102067.34;5071513;28;20470;-75
2023/01/03 11:17:20;;;;;;;6.40;4.68;;;;;;;17.39;42.10;102062.50;5071617;28;20391;-75
2023/01/03 11:19:47;;;;;;;6.97;4.75;;;;;;;17.43;41.59;102060.28;5070932;28;20469;-75
2023/01/03 11:22:33;;;;;;;10.00;5.30;;;;;;;17.45;41.83;102056.41;5070887;28;20387;-74
2023/01/03 11:25:08;;;;;;;6.70;5.28;;;;;;;17.67;41.71;102059.22;5070893;28;20418;-76
2023/01/03 11:28:01;;;;;;;7.07;5.57;;;;;;;17.53;41.69;102050.97;5071721;28;20387;-75
2023/01/03 11:31:05;;;;;;;9.23;4.45;;;;;;;17.62;41.86;102051.72;5071084;28;20367;-74
2023/01/03 11:33:42;;;;;;;8.25;5.43;;;;;;;17.75;41.91;102048.38;5030083;28;20394;-76
2023/01/03 11:36:24;;;;;;;6.85;3.50;;;;;;;17.56;41.90;102047.09;5070506;28;20395;-74
2023/01/03 11:38:56;;;;;;;7.55;3.55;;;;;;;17.45;42.40;102052.88;5090286;28;20382;-76
2023/01/03 11:41:49;;;;;;;5.65;3.90;;;;;;;17.39;42.51;102033.84;5072979;28;20908;-76
2023/01/03 11:44:29;;;;;;;7.47;4.68;;;;;;;17.58;42.35;102037.84;5071280;28;20807;-75
2023/01/03 11:47:18;;;;;;;6.15;3.30;;;;;;;17.49;42.81;102027.41;5070724;28;20382;-76
2023/01/03 11:49:43;;;;;;;8.40;5.20;;;;;;;17.75;42.76;102018.88;5067071;28;20390;-78
2023/01/03 11:52:09;;;;;;;6.53;3.53;;;;;;;17.49;42.84;102032.75;5071952;28;20736;-75
2023/01/03 11:55:11;;;;;;;5.25;3.83;;;;;;;17.56;43.26;102031.00;5071671;28;20445;-76
2023/01/03 11:58:14;;;;;;;5.40;3.50;;;;;;;17.57;43.57;102030.81;5070823;28;20434;-74
2023/01/03 12:01:00;;;;;;;5.37;3.03;;;;;;;17.36;44.06;102023.50;5070392;28;20383;-77
2023/01/03 12:03:59;;;;;;;3.70;3.00;;;;;;;17.31;43.77;102028.56;5069769;28;20394;-75
2023/01/03 12:06:47;;;;;;;5.25;3.20;;;;;;;17.32;43.92;102026.72;5070956;28;20508;-74
2023/01/03 12:09:30;;;;;;;4.05;2.42;;;;;;;17.28;43.97;102022.75;5070042;28;20859;-75
2023/01/03 12:11:58;;;;;;;5.57;3.00;;;;;;;17.31;44.19;102031.25;5063724;28;20386;-75
2023/01/03 12:14:37;;;;;;;7.68;2.80;;;;;;;17.14;44.50;102024.38;5071659;28;20387;-76
2023/01/03 12:17:15;;;;;;;4.57;2.83;;;;;;;17.57;43.75;102021.94;5059495;28;20485;-76
2023/01/03 12:19:48;;;;;;;4.68;2.90;;;;;;;17.41;44.05;102008.69;5072687;28;20379;-75
2023/01/03 12:22:20;;;;;;;4.30;3.10;;;;;;;17.39;44.14;102019.59;5064111;28;20382;-75
2023/01/03 12:24:53;;;;;;;4.65;3.55;;;;;;;17.63;43.78;102013.16;5071088;28;20875;-76
2023/01/03 12:27:34;;;;;;;5.43;3.58;;;;;;;17.66;43.66;102023.50;5070701;28;20391;-76
2023/01/03 12:30:18;;;;;;;5.55;2.50;;;;;;;17.28;44.04;102031.59;5071018;28;20779;-76
2023/01/03 12:32:54;;;;;;;4.25;2.50;;;;;;;17.24;44.05;102013.41;5069502;28;20387;-76
2023/01/03 12:35:35;;;;;;;5.15;2.78;;;;;;;17.22;44.37;102010.09;5075375;28;20429;-75
2023/01/03 12:38:04;;;;;;;5.45;2.55;;;;;;;17.01;44.58;102022.31;5086552;28;20505;-76